createdAt,value
2018-09-25T00:00:49.108Z,3.30
2018-09-25T00:03:22.893Z,3.33
2018-09-25T00:05:56.724Z,7.77
2018-09-25T00:08:30.572Z,4.47
2018-09-25T00:11:04.537Z,3.43
2018-09-25T00:13:38.281Z,4.47
2018-09-25T00:16:12.522Z,4.33
2018-09-25T00:18:46.278Z,4.10
2018-09-25T00:21:20.021Z,3.37
2018-09-25T00:23:53.926Z,2.80
2018-09-25T00:26:27.747Z,3.60
2018-09-25T00:29:02.377Z,4.60
2018-09-25T00:31:36.408Z,3.10
2018-09-25T00:34:10.442Z,3.50
2018-09-25T00:36:44.185Z,3.70
2018-09-25T00:39:18.408Z,6.37
2018-09-25T00:41:52.533Z,3.83
2018-09-25T00:44:26.545Z,2.30
2018-09-25T00:47:00.360Z,2.77
2018-09-25T00:49:34.019Z,3.27
2018-09-25T00:52:08.005Z,6.43
2018-09-25T00:54:41.751Z,3.23
2018-09-25T00:57:15.432Z,2.70
2018-09-25T00:59:49.353Z,5.43
2018-09-25T01:02:23.403Z,5.93
2018-09-25T01:04:57.228Z,3.13
2018-09-25T01:07:31.117Z,2.90
2018-09-25T01:10:05.114Z,3.87
2018-09-25T01:12:38.976Z,5.50
2018-09-25T01:15:12.816Z,7.33
2018-09-25T01:17:46.596Z,4.30
2018-09-25T01:20:20.434Z,4.23
2018-09-25T01:22:54.323Z,4.30
2018-09-25T01:25:28.294Z,6.83
2018-09-25T01:28:02.163Z,3.83
2018-09-25T01:30:35.996Z,3.50
2018-09-25T01:33:09.797Z,2.63
2018-09-25T01:35:44.004Z,6.03
2018-09-25T01:38:17.741Z,5.07
2018-09-25T01:40:51.585Z,3.93
2018-09-25T01:43:25.561Z,3.43
2018-09-25T01:45:59.423Z,8.93
2018-09-25T01:48:33.111Z,2.90
2018-09-25T01:51:06.965Z,4.63
2018-09-25T01:53:40.861Z,5.63
2018-09-25T01:56:14.673Z,6.80
2018-09-25T01:58:48.616Z,4.30
2018-09-25T02:01:22.374Z,3.60
2018-09-25T02:03:56.164Z,3.37
2018-09-25T02:06:29.952Z,4.20
2018-09-25T02:09:03.894Z,2.83
2018-09-25T02:11:37.720Z,3.50
2018-09-25T02:14:11.554Z,3.23
2018-09-25T02:16:46.048Z,4.83
2018-09-25T02:19:20.084Z,3.57
2018-09-25T02:21:54.783Z,6.27
2018-09-25T02:24:28.597Z,4.20
2018-09-25T02:27:02.548Z,3.73
2018-09-25T02:29:36.379Z,4.10
2018-09-25T02:32:10.177Z,4.77
2018-09-25T02:34:43.896Z,6.90
2018-09-25T02:37:17.826Z,4.50
2018-09-25T02:39:51.793Z,3.60
2018-09-25T02:42:25.910Z,3.33
2018-09-25T02:45:00.008Z,5.07
2018-09-25T02:47:33.777Z,8.93
2018-09-25T02:50:07.797Z,3.80
2018-09-25T02:52:41.686Z,5.90
2018-09-25T02:55:15.656Z,2.77
2018-09-25T02:57:49.487Z,4.70
2018-09-25T03:00:23.260Z,3.30
2018-09-25T03:02:57.105Z,4.50
2018-09-25T03:05:30.960Z,3.70
2018-09-25T03:08:04.893Z,3.87
2018-09-25T03:10:38.879Z,3.33
2018-09-25T03:13:12.764Z,4.67
2018-09-25T03:15:46.590Z,5.87
2018-09-25T03:18:20.658Z,7.00
2018-09-25T03:20:54.535Z,6.30
2018-09-25T03:23:28.319Z,3.93
2018-09-25T03:26:02.107Z,7.67
2018-09-25T03:28:36.015Z,3.90
2018-09-25T03:31:09.869Z,5.67
2018-09-25T03:33:43.945Z,3.40
2018-09-25T03:36:17.866Z,3.90
2018-09-25T03:38:51.875Z,5.73
2018-09-25T03:41:25.737Z,5.80
2018-09-25T03:43:59.814Z,5.40
2018-09-25T03:46:33.691Z,4.20
2018-09-25T03:49:07.590Z,11.43
2018-09-25T03:51:41.547Z,7.80
2018-09-25T03:54:15.589Z,9.33
2018-09-25T03:56:49.392Z,3.30
2018-09-25T03:59:23.324Z,4.53
2018-09-25T04:01:57.071Z,2.87
2018-09-25T04:04:30.903Z,4.80
2018-09-25T04:07:04.617Z,9.63
2018-09-25T04:09:38.457Z,4.33
2018-09-25T04:12:12.298Z,4.23
2018-09-25T04:14:46.132Z,8.07
2018-09-25T04:17:19.958Z,9.03
2018-09-25T04:19:54.152Z,5.63
2018-09-25T04:22:27.980Z,6.00
2018-09-25T04:25:02.000Z,11.63
2018-09-25T04:27:36.064Z,10.33
2018-09-25T04:30:10.473Z,5.43
2018-09-25T04:32:44.658Z,5.07
2018-09-25T04:35:18.994Z,8.40
2018-09-25T04:37:52.790Z,10.33
2018-09-25T04:40:26.671Z,8.70
2018-09-25T04:43:00.558Z,9.23
2018-09-25T04:45:34.487Z,32.70
2018-09-25T04:48:08.281Z,26.27
2018-09-25T04:50:42.427Z,34.70
2018-09-25T04:53:16.465Z,11.87
2018-09-25T04:55:50.544Z,19.97
2018-09-25T04:58:24.608Z,17.77
2018-09-25T05:00:58.567Z,19.40
2018-09-25T05:03:32.260Z,12.27
2018-09-25T05:06:05.966Z,11.30
2018-09-25T05:08:39.948Z,13.33
2018-09-25T05:11:13.883Z,5.73
2018-09-25T05:13:47.529Z,5.17
2018-09-25T05:16:21.427Z,22.17
2018-09-25T05:18:55.436Z,16.20
2018-09-25T05:21:29.318Z,24.27
2018-09-25T05:24:03.129Z,12.17
2018-09-25T05:26:36.923Z,9.43
2018-09-25T05:29:10.997Z,11.77
2018-09-25T05:31:44.985Z,26.83
2018-09-25T05:34:18.900Z,37.30
2018-09-25T05:43:45.526Z,27.53
2018-09-25T05:46:19.305Z,31.83
2018-09-25T05:48:53.481Z,15.17
2018-09-25T05:51:27.353Z,14.77
2018-09-25T05:54:01.261Z,12.27
2018-09-25T05:56:35.009Z,12.23
2018-09-25T05:59:08.853Z,16.67
2018-09-25T06:01:42.627Z,8.70
2018-09-25T06:04:16.353Z,5.53
2018-09-25T06:06:50.388Z,7.17
2018-09-25T06:09:25.011Z,7.77
2018-09-25T06:11:58.802Z,6.30
2018-09-25T06:14:32.774Z,7.60
2018-09-25T06:17:06.532Z,6.57
2018-09-25T06:19:40.576Z,8.03
2018-09-25T06:22:14.384Z,7.60
2018-09-25T06:24:48.354Z,7.40
2018-09-25T06:27:23.165Z,6.67
2018-09-25T06:29:57.130Z,10.70
2018-09-25T06:32:31.013Z,9.13
2018-09-25T06:35:04.953Z,7.33
2018-09-25T06:37:38.963Z,8.13
2018-09-25T06:40:12.646Z,9.43
2018-09-25T06:42:46.391Z,9.87
2018-09-25T06:45:20.348Z,11.50
2018-09-25T06:47:54.955Z,8.40
2018-09-25T06:50:28.840Z,8.57
2018-09-25T06:53:02.548Z,11.10
2018-09-25T06:55:36.481Z,9.90
2018-09-25T06:58:10.424Z,8.43
2018-09-25T07:00:44.495Z,6.93
2018-09-25T07:03:18.927Z,7.60
2018-09-25T07:05:52.675Z,8.63
2018-09-25T07:08:26.686Z,10.43
2018-09-25T07:11:00.463Z,10.07
2018-09-25T07:13:34.408Z,10.67
2018-09-25T07:16:08.391Z,10.53
2018-09-25T07:18:42.509Z,9.57
2018-09-25T07:21:18.355Z,13.10
2018-09-25T07:23:52.268Z,11.30
2018-09-25T07:26:26.201Z,7.90
2018-09-25T07:29:00.433Z,11.93
2018-09-25T07:31:34.304Z,13.57
2018-09-25T07:34:08.206Z,9.33
2018-09-25T07:36:42.288Z,10.53
2018-09-25T07:39:16.158Z,10.70
2018-09-25T07:41:49.956Z,9.20
2018-09-25T07:44:23.838Z,8.77
2018-09-25T07:46:57.622Z,8.70
2018-09-25T07:49:31.534Z,7.60
2018-09-25T07:52:12.531Z,10.23
2018-09-25T07:54:46.348Z,11.37
2018-09-25T07:57:20.369Z,9.53
2018-09-25T07:59:54.249Z,9.17
2018-09-25T08:02:28.179Z,10.30
2018-09-25T08:05:01.964Z,9.40
2018-09-25T08:07:36.135Z,7.30
2018-09-25T08:10:10.968Z,7.00
2018-09-25T08:12:45.065Z,9.20
2018-09-25T08:15:19.518Z,7.87
2018-09-25T08:17:53.484Z,10.10
2018-09-25T08:20:27.370Z,13.67
2018-09-25T08:23:01.174Z,8.37
2018-09-25T08:25:35.092Z,12.17
2018-09-25T08:28:09.031Z,9.40
2018-09-25T08:30:42.879Z,9.40
2018-09-25T08:33:16.866Z,7.67
2018-09-25T08:35:50.809Z,8.63
2018-09-25T08:38:24.623Z,12.00
2018-09-25T08:40:58.584Z,10.60
2018-09-25T08:43:32.330Z,11.17
2018-09-25T08:46:06.306Z,7.10
2018-09-25T08:48:40.516Z,5.00
2018-09-25T08:51:14.528Z,9.90
2018-09-25T08:53:48.539Z,7.73
2018-09-25T08:56:22.609Z,8.43
2018-09-25T08:58:56.669Z,7.27
2018-09-25T09:01:30.531Z,5.73
2018-09-25T09:04:04.367Z,10.63
2018-09-25T09:06:38.376Z,6.17
2018-09-25T09:09:14.496Z,8.23
2018-09-25T09:11:49.001Z,7.50
2018-09-25T09:14:22.943Z,7.53
2018-09-25T09:16:56.948Z,6.67
2018-09-25T09:19:31.170Z,6.80
2018-09-25T09:22:05.239Z,7.07
2018-09-25T09:24:39.090Z,7.30
2018-09-25T09:27:13.033Z,5.33
2018-09-25T09:29:46.949Z,7.13
2018-09-25T09:32:20.780Z,6.53
2018-09-25T09:34:54.668Z,8.80
2018-09-25T09:37:28.613Z,7.50
2018-09-25T09:40:02.648Z,16.10
2018-09-25T09:42:36.859Z,9.00
2018-09-25T09:45:11.023Z,10.37
2018-09-25T09:47:44.936Z,6.90
2018-09-25T09:50:18.878Z,6.57
2018-09-25T09:52:52.687Z,6.13
2018-09-25T09:55:26.512Z,7.53
2018-09-25T09:58:00.321Z,3.17
2018-09-25T10:00:34.238Z,2.70
2018-09-25T10:03:07.985Z,6.73
2018-09-25T10:05:41.937Z,4.57
2018-09-25T10:08:15.811Z,5.83
2018-09-25T10:10:49.520Z,5.93
2018-09-25T10:13:23.473Z,4.33
2018-09-25T10:15:57.297Z,2.90
2018-09-25T10:18:31.130Z,6.83
2018-09-25T10:21:04.963Z,3.40
2018-09-25T10:23:39.055Z,4.37
2018-09-25T10:26:13.034Z,3.20
2018-09-25T10:28:47.135Z,3.20
2018-09-25T10:31:21.131Z,3.30
2018-09-25T10:33:55.073Z,5.80
2018-09-25T10:36:29.258Z,5.93
2018-09-25T10:39:03.169Z,6.10
2018-09-25T10:41:37.139Z,4.87
2018-09-25T10:44:11.271Z,7.00
2018-09-25T10:46:45.277Z,3.60
2018-09-25T10:49:19.115Z,5.93
2018-09-25T10:51:53.077Z,8.37
2018-09-25T10:54:27.193Z,10.80
2018-09-25T10:57:01.172Z,8.80
2018-09-25T10:59:34.957Z,2.40
2018-09-25T11:02:08.906Z,5.97
2018-09-25T11:04:42.763Z,6.23
2018-09-25T11:07:16.578Z,5.30
2018-09-25T11:09:50.398Z,8.63
2018-09-25T11:12:25.000Z,5.43
2018-09-25T11:14:58.845Z,2.17
2018-09-25T11:17:32.746Z,3.90
2018-09-25T11:20:06.654Z,6.80
2018-09-25T11:22:40.430Z,5.07
2018-09-25T11:25:14.337Z,2.30
2018-09-25T11:27:48.132Z,3.87
2018-09-25T11:30:21.971Z,2.50
2018-09-25T11:32:56.075Z,4.60
2018-09-25T11:35:30.055Z,2.67
2018-09-25T11:38:04.467Z,2.30
2018-09-25T11:40:38.419Z,3.07
2018-09-25T11:43:12.568Z,7.00
2018-09-25T11:45:46.772Z,4.07
2018-09-25T11:48:21.452Z,5.83
2018-09-25T11:50:55.378Z,3.83
2018-09-25T11:53:29.398Z,2.93
2018-09-25T11:56:03.434Z,4.93
2018-09-25T11:58:37.405Z,3.27
2018-09-25T12:01:11.300Z,1.30
2018-09-25T12:03:46.055Z,2.63
2018-09-25T12:06:20.086Z,5.70
2018-09-25T12:08:54.015Z,3.93
2018-09-25T12:11:27.993Z,2.90
2018-09-25T12:14:02.000Z,2.77
2018-09-25T12:16:35.878Z,4.20
2018-09-25T12:19:09.691Z,3.43
2018-09-25T12:21:43.742Z,5.47
2018-09-25T12:24:17.463Z,4.93
2018-09-25T12:26:51.437Z,5.50
2018-09-25T12:29:25.250Z,2.10
2018-09-25T12:31:59.669Z,3.23
2018-09-25T12:34:33.571Z,6.47
2018-09-25T12:37:07.438Z,3.80
2018-09-25T12:39:41.355Z,3.63
2018-09-25T12:42:15.228Z,4.23
2018-09-25T12:44:49.141Z,4.13
2018-09-25T12:47:23.140Z,4.30
2018-09-25T12:49:57.075Z,3.87
2018-09-25T12:52:30.969Z,2.70
2018-09-25T12:55:04.881Z,2.77
2018-09-25T12:57:38.772Z,3.33
2018-09-25T13:00:12.999Z,3.90
2018-09-25T13:02:46.720Z,3.40
2018-09-25T13:05:20.545Z,8.73
2018-09-25T13:07:54.533Z,7.10
2018-09-25T13:10:28.311Z,5.90
2018-09-25T13:13:02.109Z,2.27
2018-09-25T13:15:35.904Z,4.30
2018-09-25T13:18:09.882Z,3.13
2018-09-25T13:20:43.709Z,2.60
2018-09-25T13:23:17.545Z,5.00
2018-09-25T13:25:51.603Z,2.53
2018-09-25T13:28:25.589Z,3.53
2018-09-25T13:30:59.433Z,4.07
2018-09-25T13:33:33.389Z,3.07
2018-09-25T13:36:07.546Z,5.33
2018-09-25T13:38:41.480Z,0.97
2018-09-25T13:41:15.271Z,3.57
2018-09-25T13:43:49.898Z,3.13
2018-09-25T13:46:23.628Z,2.60
2018-09-25T13:48:58.108Z,3.10
2018-09-25T13:51:32.243Z,3.10
2018-09-25T13:54:05.992Z,2.10
2018-09-25T13:56:39.904Z,2.87
2018-09-25T13:59:13.868Z,3.10
2018-09-25T14:01:47.715Z,1.37
2018-09-25T14:04:21.660Z,3.87
2018-09-25T14:06:55.643Z,4.47
2018-09-25T14:09:30.113Z,3.23
2018-09-25T14:12:03.983Z,7.70
2018-09-25T14:14:37.879Z,3.30
2018-09-25T14:17:11.783Z,2.90
2018-09-25T14:19:45.809Z,3.80
2018-09-25T14:22:19.720Z,1.90
2018-09-25T14:24:53.943Z,3.07
2018-09-25T14:27:27.912Z,7.07
2018-09-25T14:30:02.277Z,5.13
2018-09-25T14:32:36.157Z,5.30
2018-09-25T14:35:10.887Z,2.83
2018-09-25T14:37:44.590Z,1.90
2018-09-25T14:40:18.492Z,1.10
2018-09-25T14:42:52.592Z,3.23
2018-09-25T14:45:26.645Z,3.27
2018-09-25T14:48:00.436Z,4.13
2018-09-25T14:50:34.242Z,1.77
2018-09-25T14:53:08.148Z,3.17
2018-09-25T14:55:41.954Z,4.70
2018-09-25T14:58:16.150Z,2.03
2018-09-25T15:00:50.101Z,5.20
2018-09-25T15:03:25.489Z,3.40
2018-09-25T15:05:59.222Z,4.53
2018-09-25T15:08:33.083Z,3.20
2018-09-25T15:11:07.190Z,1.43
2018-09-25T15:13:41.072Z,3.43
2018-09-25T15:16:14.944Z,4.20
2018-09-25T15:18:49.429Z,3.33
2018-09-25T15:21:23.465Z,3.27
2018-09-25T15:23:57.468Z,1.63
2018-09-25T15:26:31.572Z,3.30
2018-09-25T15:29:05.403Z,1.50
2018-09-25T15:31:39.478Z,3.97
2018-09-25T15:34:13.969Z,3.33
2018-09-25T15:36:48.076Z,2.53
2018-09-25T15:39:22.907Z,0.73
2018-09-25T15:41:56.847Z,1.20
2018-09-25T15:44:30.918Z,7.30
2018-09-25T15:47:04.681Z,2.03
2018-09-25T15:49:38.410Z,2.80
2018-09-25T15:52:12.884Z,1.27
2018-09-25T15:54:47.029Z,2.70
2018-09-25T15:57:20.995Z,3.93
2018-09-25T15:59:54.871Z,2.77
2018-09-25T16:02:28.867Z,1.50
2018-09-25T16:05:02.740Z,1.87
2018-09-25T16:07:36.595Z,1.60
2018-09-25T16:10:10.952Z,3.07
2018-09-25T16:12:44.760Z,3.13
2018-09-25T16:15:18.663Z,2.03
2018-09-25T16:17:52.602Z,5.80
2018-09-25T16:20:26.482Z,4.70
2018-09-25T16:23:00.855Z,5.23
2018-09-25T16:25:35.730Z,2.73
2018-09-25T16:28:09.787Z,2.53
2018-09-25T16:30:43.669Z,6.40
2018-09-25T16:33:18.353Z,2.67
2018-09-25T16:35:52.118Z,1.90
2018-09-25T16:38:26.146Z,3.90
2018-09-25T16:41:00.009Z,3.10
2018-09-25T16:43:33.883Z,1.90
2018-09-25T16:46:07.809Z,1.93
2018-09-25T16:48:41.992Z,4.07
2018-09-25T16:51:15.863Z,2.07
2018-09-25T16:53:49.725Z,3.13
2018-09-25T16:56:23.890Z,2.07
2018-09-25T16:58:57.961Z,3.30
2018-09-25T17:01:31.898Z,2.67
2018-09-25T17:04:06.007Z,2.57
2018-09-25T17:06:39.990Z,3.23
2018-09-25T17:09:13.916Z,4.73
2018-09-25T17:11:47.884Z,4.40
2018-09-25T17:14:21.765Z,4.07
2018-09-25T17:16:55.661Z,4.50
2018-09-25T17:19:29.601Z,6.00
2018-09-25T17:22:03.810Z,2.13
2018-09-25T17:24:37.870Z,4.00
2018-09-25T17:27:11.510Z,6.27
2018-09-25T17:29:45.335Z,3.07
2018-09-25T17:32:19.218Z,2.70
2018-09-25T17:34:53.215Z,5.93
2018-09-25T17:37:27.146Z,3.50
2018-09-25T17:40:00.920Z,7.03
2018-09-25T17:42:34.941Z,2.43
2018-09-25T17:45:08.844Z,1.87
2018-09-25T17:47:42.719Z,3.00
2018-09-25T17:50:16.813Z,3.43
2018-09-25T17:52:50.836Z,2.70
2018-09-25T17:55:24.648Z,3.00
2018-09-25T17:57:59.307Z,1.80
2018-09-25T18:00:33.343Z,3.90
2018-09-25T18:03:07.533Z,4.00
2018-09-25T18:05:41.709Z,2.50
2018-09-25T18:08:15.495Z,7.53
2018-09-25T18:10:49.367Z,20.67
2018-09-25T18:13:23.244Z,3.57
2018-09-25T18:15:57.859Z,4.63
2018-09-25T18:18:32.025Z,6.60
2018-09-25T18:21:06.027Z,4.77
2018-09-25T18:23:41.080Z,1.77
2018-09-25T18:26:15.146Z,3.27
2018-09-25T18:28:49.127Z,3.87
2018-09-25T18:31:23.326Z,4.90
2018-09-25T18:33:57.085Z,3.27
2018-09-25T18:36:30.817Z,7.23
2018-09-25T18:39:04.566Z,4.63
2018-09-25T18:41:38.502Z,1.60
2018-09-25T18:44:12.348Z,2.87
2018-09-25T18:46:46.193Z,5.57
2018-09-25T18:49:20.199Z,4.80
2018-09-25T18:51:54.023Z,3.23
2018-09-25T18:54:27.992Z,5.37
2018-09-25T18:57:01.701Z,3.73
2018-09-25T18:59:35.651Z,3.60
2018-09-25T19:02:09.594Z,4.20
2018-09-25T19:04:44.014Z,2.83
2018-09-25T19:07:18.432Z,2.87
2018-09-25T19:09:52.369Z,2.37
2018-09-25T19:12:26.289Z,3.93
2018-09-25T19:15:00.948Z,5.63
2018-09-25T19:17:34.955Z,2.20
2018-09-25T19:20:09.054Z,4.03
2018-09-25T19:22:43.198Z,2.93
2018-09-25T19:25:17.119Z,3.23
2018-09-25T19:27:51.143Z,4.40
2018-09-25T19:30:25.071Z,7.17
2018-09-25T19:32:59.124Z,5.93
2018-09-25T19:35:32.818Z,7.43
2018-09-25T19:38:06.906Z,4.83
2018-09-25T19:40:40.790Z,3.70
2018-09-25T19:43:14.619Z,2.50
2018-09-25T19:45:48.476Z,4.30
2018-09-25T19:48:22.351Z,2.77
2018-09-25T19:50:56.215Z,5.23
2018-09-25T19:53:30.029Z,5.00
2018-09-25T19:56:03.871Z,3.97
2018-09-25T19:58:37.768Z,3.13
2018-09-25T20:01:12.108Z,4.70
2018-09-25T20:03:46.199Z,2.70
2018-09-25T20:06:20.019Z,5.07
2018-09-25T20:08:54.171Z,4.47
2018-09-25T20:11:28.276Z,3.67
2018-09-25T20:14:02.107Z,3.90
2018-09-25T20:16:35.913Z,3.80
2018-09-25T20:19:09.802Z,2.63
2018-09-25T20:21:43.765Z,3.27
2018-09-25T20:24:17.925Z,4.60
2018-09-25T20:26:51.793Z,4.20
2018-09-25T20:29:25.743Z,3.70
2018-09-25T20:31:59.590Z,6.33
2018-09-25T20:34:33.649Z,3.97
2018-09-25T20:37:08.094Z,3.97
2018-09-25T20:39:42.338Z,4.13
2018-09-25T20:42:16.185Z,3.47
2018-09-25T20:44:49.814Z,3.83
2018-09-25T20:47:23.841Z,6.23
2018-09-25T20:49:57.877Z,2.67
2018-09-25T20:52:32.869Z,5.40
2018-09-25T20:55:07.408Z,2.77
2018-09-25T20:57:41.407Z,4.53
2018-09-25T21:00:15.496Z,4.10
2018-09-25T21:02:49.378Z,3.10
2018-09-25T21:05:23.467Z,13.23
2018-09-25T21:07:57.473Z,4.60
2018-09-25T21:10:31.404Z,5.07
2018-09-25T21:13:05.249Z,5.17
2018-09-25T21:15:40.009Z,3.43
2018-09-25T21:18:13.893Z,5.13
2018-09-25T21:20:47.910Z,6.00
2018-09-25T21:23:21.962Z,3.47
2018-09-25T21:25:55.884Z,3.37
2018-09-25T21:28:29.833Z,5.33
2018-09-25T21:31:03.680Z,4.57
2018-09-25T21:33:38.778Z,4.10
2018-09-25T21:36:12.729Z,6.83
2018-09-25T21:38:47.287Z,6.93
2018-09-25T21:41:21.091Z,5.50
2018-09-25T21:43:54.999Z,8.73
2018-09-25T21:46:29.701Z,5.77
2018-09-25T21:49:03.474Z,3.83
2018-09-25T21:51:37.410Z,4.90
2018-09-25T21:54:11.153Z,6.40
2018-09-25T21:56:45.070Z,4.27
2018-09-25T21:59:18.804Z,2.60
2018-09-25T22:01:52.732Z,5.37
2018-09-25T22:04:26.642Z,3.37
2018-09-25T22:07:00.801Z,7.60
2018-09-25T22:09:34.888Z,4.10
2018-09-25T22:12:08.901Z,5.33
2018-09-25T22:14:42.991Z,4.27
2018-09-25T22:17:17.052Z,4.43
2018-09-25T22:19:50.984Z,4.70
2018-09-25T22:22:25.123Z,4.13
2018-09-25T22:24:59.248Z,6.50
2018-09-25T22:27:33.073Z,6.43
2018-09-25T22:30:07.087Z,5.40
2018-09-25T22:32:41.082Z,7.73
2018-09-25T22:35:14.975Z,4.13
2018-09-25T22:37:49.124Z,4.87
2018-09-25T22:40:23.024Z,4.77
2018-09-25T22:42:57.577Z,4.30
2018-09-25T22:45:31.530Z,3.93
2018-09-25T22:48:05.488Z,4.13
2018-09-25T22:50:39.423Z,6.93
2018-09-25T22:53:13.714Z,3.47
2018-09-25T22:55:47.627Z,3.87
2018-09-25T22:58:21.608Z,7.10
2018-09-25T23:00:55.529Z,5.40
2018-09-25T23:03:29.336Z,4.37
2018-09-25T23:06:03.272Z,5.50
2018-09-25T23:08:37.191Z,4.37
2018-09-25T23:11:11.597Z,4.70
2018-09-25T23:13:45.356Z,7.73
2018-09-25T23:16:19.170Z,4.17
2018-09-25T23:18:53.098Z,4.23
2018-09-25T23:21:26.900Z,5.27
2018-09-25T23:24:00.805Z,5.93
2018-09-25T23:26:34.858Z,5.17
2018-09-25T23:29:09.593Z,4.90
2018-09-25T23:31:43.479Z,4.60
2018-09-25T23:34:17.246Z,5.10
2018-09-25T23:36:51.300Z,5.30
2018-09-25T23:39:25.217Z,5.63
2018-09-25T23:41:58.134Z,8.23
2018-09-25T23:44:31.944Z,5.00
2018-09-25T23:47:05.569Z,4.10
2018-09-25T23:49:43.606Z,3.70
2018-09-25T23:52:18.644Z,3.10
2018-09-25T23:54:53.569Z,3.30
2018-09-25T23:58:27.420Z,4.73
